Time;durP1;ratioP1;P1;durP2;ratioP2;P2;SDS_P1;SDS_P2;PMS_P1;PMS_P2;Temp;Humidity;BMP_temperature;BMP_pressure;BME280_temperature;BME280_humidity;BME280_pressure;Samples;Min_cycle;Max_cycle;Signal;HPM_P1;HPM_P2
2022/04/19 00:00:54;;;;;;;3.85;3.55;;;;;;;;;;4992687;28;20046;-79
2022/04/19 00:03:22;;;;;;;4.53;3.30;;;;;;;;;;4991992;28;20046;-79
2022/04/19 00:05:49;;;;;;;4.22;3.88;;;;;;;;;;4990494;28;20065;-79
2022/04/19 00:08:17;;;;;;;3.95;3.58;;;;;;;;;;4993233;28;20042;-79
2022/04/19 00:10:44;;;;;;;3.83;3.50;;;;;;;;;;4991977;28;20110;-79
2022/04/19 00:13:13;;;;;;;3.97;3.58;;;;;;;;;;4978239;28;20127;-80
2022/04/19 00:15:41;;;;;;;4.50;3.65;;;;;;;;;;4996747;28;20145;-79
2022/04/19 00:18:10;;;;;;;3.70;3.38;;;;;;;;;;4980967;28;20042;-79
2022/04/19 00:20:42;;;;;;;4.25;3.67;;;;;;;;;;4991430;28;20046;-80
2022/04/19 00:23:13;;;;;;;4.25;3.90;;;;;;;;;;4992210;28;20060;-79
2022/04/19 00:25:41;;;;;;;3.65;3.25;;;;;;;;;;4984427;28;20101;-79
2022/04/19 00:28:09;;;;;;;3.78;3.45;;;;;;;;;;4999002;28;20574;-80
2022/04/19 00:30:37;;;;;;;4.05;3.33;;;;;;;;;;5002379;28;20718;-80
2022/04/19 00:33:05;;;;;;;3.72;3.42;;;;;;;;;;4992754;28;20132;-79
2022/04/19 00:35:32;;;;;;;3.50;3.20;;;;;;;;;;4993323;28;20041;-79
2022/04/19 00:38:00;;;;;;;4.57;3.53;;;;;;;;;;4978880;28;20160;-79
2022/04/19 00:40:28;;;;;;;3.90;3.50;;;;;;;;;;4976023;28;20322;-79
2022/04/19 00:42:55;;;;;;;3.58;3.13;;;;;;;;;;4996906;28;20045;-79
2022/04/19 00:45:23;;;;;;;3.58;3.28;;;;;;;;;;4998673;28;20533;-78
2022/04/19 00:47:53;;;;;;;4.38;3.38;;;;;;;;;;5003921;28;20076;-79
2022/04/19 00:50:22;;;;;;;;;;;;;;;;;;5002716;28;20112;-79
2022/04/19 00:52:50;;;;;;;3.55;3.25;;;;;;;;;;4983290;28;19925;-79
2022/04/19 00:55:19;;;;;;;3.22;3.03;;;;;;;;;;4982970;28;20038;-79
2022/04/19 00:57:46;;;;;;;5.22;3.25;;;;;;;;;;4988642;28;20046;-79
2022/04/19 01:00:15;;;;;;;3.85;3.45;;;;;;;;;;4986002;28;20384;-79
2022/04/19 01:02:55;;;;;;;3.60;3.30;;;;;;;;;;4985534;28;20061;-80
2022/04/19 01:05:25;;;;;;;3.83;3.33;;;;;;;;;;4992663;28;20112;-80
2022/04/19 01:07:53;;;;;;;3.38;3.08;;;;;;;;;;4991872;28;20522;-79
2022/04/19 01:10:25;;;;;;;4.03;3.63;;;;;;;;;;4971748;28;20045;-79
2022/04/19 01:15:41;;;;;;;3.38;3.08;;;;;;;;;;4985450;28;20050;-79
2022/04/19 01:18:12;;;;;;;3.90;3.38;;;;;;;;;;4956498;28;20054;-79
2022/04/19 01:20:42;;;;;;;4.03;3.70;;;;;;;;;;4980383;28;20056;-79
2022/04/19 01:23:18;;;;;;;3.05;2.85;;;;;;;;;;4986114;28;20057;-79
2022/04/19 01:25:46;;;;;;;3.42;3.13;;;;;;;;;;4981399;28;20053;-79
2022/04/19 01:28:14;;;;;;;3.88;3.50;;;;;;;;;;4994031;28;20042;-79
2022/04/19 01:30:45;;;;;;;3.47;3.17;;;;;;;;;;4999940;28;20045;-79
2022/04/19 01:33:16;;;;;;;3.80;3.40;;;;;;;;;;4974694;28;20348;-78
2022/04/19 01:35:46;;;;;;;5.57;3.40;;;;;;;;;;4983279;28;20030;-78
2022/04/19 01:38:15;;;;;;;3.78;3.47;;;;;;;;;;4987050;28;20477;-79
2022/04/19 01:41:05;;;;;;;3.40;3.10;;;;;;;;;;4990296;28;20041;-79
2022/04/19 01:43:45;;;;;;;3.50;3.20;;;;;;;;;;4975478;28;20057;-79
2022/04/19 01:46:17;;;;;;;3.30;2.95;;;;;;;;;;4957665;28;20103;-78
2022/04/19 01:48:44;;;;;;;3.53;3.20;;;;;;;;;;4982695;28;20066;-79
2022/04/19 01:51:14;;;;;;;3.50;3.28;;;;;;;;;;4982971;28;20054;-79
2022/04/19 01:53:41;;;;;;;3.30;3.10;;;;;;;;;;4985363;28;20112;-79
2022/04/19 01:56:09;;;;;;;3.40;3.10;;;;;;;;;;4992624;28;20038;-79
2022/04/19 01:58:55;;;;;;;3.70;3.17;;;;;;;;;;4990777;28;20046;-80
2022/04/19 02:01:48;;;;;;;3.83;3.35;;;;;;;;;;5008713;28;20088;-79
2022/04/19 02:04:18;;;;;;;3.08;2.88;;;;;;;;;;4967675;28;20049;-79
2022/04/19 02:06:46;;;;;;;3.80;3.40;;;;;;;;;;4973453;28;20052;-79
2022/04/19 02:09:14;;;;;;;3.50;3.20;;;;;;;;;;4987504;28;20102;-79
2022/04/19 02:11:42;;;;;;;3.50;3.30;;;;;;;;;;4974356;28;20644;-79
2022/04/19 02:14:41;;;;;;;4.10;3.70;;;;;;;;;;4991123;28;20538;-79
2022/04/19 02:17:11;;;;;;;3.50;3.20;;;;;;;;;;4973689;28;20308;-79
2022/04/19 02:19:39;;;;;;;3.25;2.95;;;;;;;;;;4971265;28;20137;-79
2022/04/19 02:22:06;;;;;;;3.35;3.10;;;;;;;;;;5003527;28;20046;-79
2022/04/19 02:24:34;;;;;;;4.90;3.60;;;;;;;;;;4974852;28;20046;-79
2022/04/19 02:27:02;;;;;;;4.38;3.22;;;;;;;;;;4958937;28;20084;-79
2022/04/19 02:29:29;;;;;;;3.63;3.33;;;;;;;;;;4988958;28;20442;-79
2022/04/19 02:31:57;;;;;;;3.30;2.97;;;;;;;;;;4988647;28;20046;-79
2022/04/19 02:34:26;;;;;;;4.80;3.78;;;;;;;;;;4973044;28;20093;-78
2022/04/19 02:36:54;;;;;;;3.92;3.63;;;;;;;;;;4990945;28;20058;-78
2022/04/19 02:39:23;;;;;;;3.78;3.47;;;;;;;;;;4986026;28;20483;-78
2022/04/19 02:41:53;;;;;;;3.72;3.42;;;;;;;;;;4991636;28;20049;-78
2022/04/19 02:44:20;;;;;;;3.60;3.30;;;;;;;;;;4976275;28;20061;-79
2022/04/19 02:47:02;;;;;;;6.50;3.50;;;;;;;;;;4992147;28;20112;-78
2022/04/19 02:49:31;;;;;;;3.58;3.28;;;;;;;;;;4966320;28;20046;-78
2022/04/19 02:51:58;;;;;;;3.78;3.47;;;;;;;;;;4989623;28;20486;-78
2022/04/19 02:54:25;;;;;;;3.80;3.40;;;;;;;;;;4993602;28;20042;-79
2022/04/19 02:56:53;;;;;;;3.90;3.55;;;;;;;;;;4980313;28;20179;-79
2022/04/19 02:59:20;;;;;;;3.45;3.15;;;;;;;;;;4984466;28;20050;-79
2022/04/19 03:01:48;;;;;;;3.78;3.47;;;;;;;;;;4997825;28;20045;-79
2022/04/19 03:04:18;;;;;;;3.47;3.17;;;;;;;;;;4972907;28;20046;-79
2022/04/19 03:06:45;;;;;;;3.60;3.30;;;;;;;;;;5008013;28;20045;-79
2022/04/19 03:09:12;;;;;;;3.13;2.92;;;;;;;;;;5007910;28;20046;-79
2022/04/19 03:11:40;;;;;;;4.28;3.53;;;;;;;;;;4975357;28;20056;-79
2022/04/19 03:14:08;;;;;;;3.42;3.13;;;;;;;;;;4990383;28;20325;-79
2022/04/19 03:16:36;;;;;;;4.57;3.50;;;;;;;;;;4991429;28;20779;-78
2022/04/19 03:19:04;;;;;;;3.25;3.05;;;;;;;;;;4975460;28;20438;-79
2022/04/19 03:21:32;;;;;;;3.42;3.13;;;;;;;;;;4971695;28;20073;-78
2022/04/19 03:29:34;;;;;;;6.35;3.33;;;;;;;;;;4973401;28;20081;-79
2022/04/19 03:32:01;;;;;;;3.20;3.00;;;;;;;;;;4989643;28;20080;-79
2022/04/19 03:34:29;;;;;;;3.53;3.25;;;;;;;;;;4991400;28;20069;-79
2022/04/19 03:36:56;;;;;;;3.83;3.40;;;;;;;;;;4989164;28;20049;-79
2022/04/19 03:39:24;;;;;;;3.60;3.30;;;;;;;;;;4989978;28;20038;-79
2022/04/19 03:41:52;;;;;;;4.13;3.20;;;;;;;;;;4990440;28;20423;-78
2022/04/19 03:44:22;;;;;;;3.15;2.95;;;;;;;;;;4990680;28;20040;-78
2022/04/19 03:47:08;;;;;;;3.60;3.30;;;;;;;;;;4990338;28;20075;-78
2022/04/19 03:49:38;;;;;;;3.50;3.20;;;;;;;;;;4957703;28;20057;-79
2022/04/19 03:52:06;;;;;;;5.88;3.95;;;;;;;;;;5007120;28;20061;-79
2022/04/19 03:54:34;;;;;;;3.75;3.50;;;;;;;;;;4990765;28;20048;-79
2022/04/19 03:57:07;;;;;;;4.78;3.55;;;;;;;;;;4986043;28;20100;-79
2022/04/19 03:59:39;;;;;;;4.05;3.47;;;;;;;;;;4988471;28;20033;-78
2022/04/19 04:02:07;;;;;;;;;;;;;;;;;;4992862;28;20510;-78
2022/04/19 04:04:36;;;;;;;3.42;3.20;;;;;;;;;;4990774;28;19925;-78
2022/04/19 04:07:05;;;;;;;3.90;3.60;;;;;;;;;;4990006;28;20048;-79
2022/04/19 04:09:35;;;;;;;3.40;3.10;;;;;;;;;;4989730;28;20118;-79
2022/04/19 04:12:04;;;;;;;4.97;3.60;;;;;;;;;;4968945;28;20225;-79
2022/04/19 04:14:31;;;;;;;3.53;3.22;;;;;;;;;;5006816;28;20073;-79
2022/04/19 04:16:58;;;;;;;4.00;3.58;;;;;;;;;;4990691;28;20046;-78
2022/04/19 04:19:26;;;;;;;3.55;3.35;;;;;;;;;;4987097;28;20040;-79
2022/04/19 04:21:54;;;;;;;3.75;3.45;;;;;;;;;;4987612;28;20038;-78
2022/04/19 04:24:22;;;;;;;6.15;3.53;;;;;;;;;;4976746;28;20064;-79
2022/04/19 04:26:50;;;;;;;5.80;3.92;;;;;;;;;;4992228;28;20048;-79
2022/04/19 04:29:21;;;;;;;4.60;4.20;;;;;;;;;;4991708;28;20050;-78
2022/04/19 04:31:50;;;;;;;6.38;4.10;;;;;;;;;;4987762;28;20550;-79
2022/04/19 04:34:18;;;;;;;4.65;4.35;;;;;;;;;;4989039;28;20045;-79
2022/04/19 04:36:48;;;;;;;4.65;4.18;;;;;;;;;;4988906;28;20103;-79
2022/04/19 04:39:19;;;;;;;5.57;4.03;;;;;;;;;;4985885;28;20046;-78
2022/04/19 04:42:05;;;;;;;3.78;3.47;;;;;;;;;;4999683;28;20614;-79
2022/04/19 04:44:32;;;;;;;3.72;3.45;;;;;;;;;;4989896;28;20516;-79
2022/04/19 04:49:47;;;;;;;8.43;5.45;;;;;;;;;;5015482;28;20174;-74
2022/04/19 04:52:19;;;;;;;;;;;;;;;;;;5002040;28;20150;-74
2022/04/19 04:54:48;;;;;;;6.45;5.85;;;;;;;;;;5015439;28;20031;-74
2022/04/19 04:57:22;;;;;;;5.72;5.22;;;;;;;;;;4992146;28;20825;-74
2022/04/19 04:59:50;;;;;;;5.53;5.03;;;;;;;;;;4981083;28;20045;-74
2022/04/19 05:02:23;;;;;;;5.60;4.60;;;;;;;;;;4995582;28;20139;-74
2022/04/19 05:04:51;;;;;;;4.90;4.50;;;;;;;;;;4993552;28;20060;-74
2022/04/19 05:07:19;;;;;;;4.47;4.18;;;;;;;;;;4996215;28;20517;-74
2022/04/19 05:09:57;;;;;;;4.22;3.83;;;;;;;;;;4997046;28;20390;-74
2022/04/19 05:12:25;;;;;;;4.25;3.80;;;;;;;;;;4995787;28;20505;-74
2022/04/19 05:14:52;;;;;;;4.97;4.43;;;;;;;;;;5011016;28;20114;-74
2022/04/19 05:17:20;;;;;;;4.43;4.00;;;;;;;;;;4992190;28;21034;-75
2022/04/19 05:19:48;;;;;;;5.75;3.67;;;;;;;;;;4990642;28;20057;-74
2022/04/19 05:22:15;;;;;;;4.63;4.32;;;;;;;;;;4997599;28;20042;-73
2022/04/19 05:24:42;;;;;;;4.63;4.07;;;;;;;;;;4995775;28;20041;-74
2022/04/19 05:27:11;;;;;;;4.72;4.32;;;;;;;;;;4996956;28;20037;-74
2022/04/19 05:29:39;;;;;;;4.18;3.88;;;;;;;;;;4999791;28;20494;-74
2022/04/19 05:32:08;;;;;;;4.28;3.88;;;;;;;;;;5000589;28;20041;-74
2022/04/19 05:34:44;;;;;;;7.15;4.90;;;;;;;;;;5000171;28;20049;-75
2022/04/19 05:37:14;;;;;;;4.22;3.92;;;;;;;;;;5000676;28;20076;-74
2022/04/19 05:39:42;;;;;;;4.40;4.00;;;;;;;;;;4988875;28;20060;-75
2022/04/19 05:42:15;;;;;;;5.20;4.70;;;;;;;;;;5008940;28;20041;-74
2022/04/19 05:44:50;;;;;;;4.60;4.22;;;;;;;;;;4998235;28;20524;-75
2022/04/19 05:47:17;;;;;;;4.93;4.15;;;;;;;;;;5003864;28;20038;-75
2022/04/19 05:49:45;;;;;;;4.60;4.20;;;;;;;;;;5008794;28;20041;-73
2022/04/19 05:52:13;;;;;;;4.80;4.38;;;;;;;;;;5004422;28;20049;-73
2022/04/19 05:54:43;;;;;;;4.63;4.30;;;;;;;;;;5003379;28;20670;-74
2022/04/19 05:57:12;;;;;;;5.10;4.63;;;;;;;;;;4983799;28;20512;-73
2022/04/19 05:59:39;;;;;;;6.00;4.80;;;;;;;;;;5004949;28;20041;-73
2022/04/19 06:04:53;;;;;;;4.57;4.20;;;;;;;;;;5005269;28;20661;-74
2022/04/19 06:07:30;;;;;;;4.97;4.32;;;;;;;;;;5024432;28;20551;-74
2022/04/19 06:10:07;;;;;;;5.93;4.70;;;;;;;;;;5010566;28;20041;-74
2022/04/19 06:12:35;;;;;;;7.70;5.90;;;;;;;;;;4991523;28;20326;-74
2022/04/19 06:15:03;;;;;;;6.38;5.72;;;;;;;;;;5003327;28;20037;-75
2022/04/19 06:17:32;;;;;;;6.55;5.95;;;;;;;;;;4999836;28;20067;-76
2022/04/19 06:20:08;;;;;;;5.45;4.97;;;;;;;;;;5009403;28;20072;-76
2022/04/19 06:22:36;;;;;;;5.13;4.65;;;;;;;;;;5007576;28;20025;-74
2022/04/19 06:25:10;;;;;;;4.40;4.00;;;;;;;;;;5001827;28;20034;-75
2022/04/19 06:27:38;;;;;;;5.78;4.93;;;;;;;;;;5001695;28;20136;-73
2022/04/19 06:30:07;;;;;;;4.88;4.47;;;;;;;;;;4991623;28;20069;-74
2022/04/19 06:32:56;;;;;;;4.68;4.28;;;;;;;;;;5004686;28;20104;-74
2022/04/19 06:35:24;;;;;;;7.28;4.70;;;;;;;;;;5007577;28;20520;-74
2022/04/19 06:37:52;;;;;;;4.22;3.75;;;;;;;;;;4997288;28;20123;-74
2022/04/19 06:40:19;;;;;;;4.38;3.97;;;;;;;;;;4998605;28;20046;-74
2022/04/19 06:42:48;;;;;;;4.53;4.10;;;;;;;;;;5008231;28;20052;-74
2022/04/19 06:45:18;;;;;;;5.72;3.78;;;;;;;;;;5022045;28;20459;-73
2022/04/19 06:48:02;;;;;;;7.85;4.50;;;;;;;;;;4996922;28;20119;-74
2022/04/19 06:50:35;;;;;;;7.30;4.45;;;;;;;;;;4994464;28;20120;-74
2022/04/19 06:53:18;;;;;;;5.28;4.78;;;;;;;;;;5010240;28;20060;-74
2022/04/19 06:56:10;;;;;;;6.50;3.88;;;;;;;;;;5025747;28;20249;-74
2022/04/19 06:58:39;;;;;;;5.00;4.50;;;;;;;;;;4976658;28;20045;-74
2022/04/19 07:01:07;;;;;;;5.97;4.18;;;;;;;;;;5007598;28;20037;-74
2022/04/19 07:03:34;;;;;;;6.53;4.55;;;;;;;;;;5000001;28;20530;-75
2022/04/19 07:06:08;;;;;;;4.88;4.22;;;;;;;;;;5022456;28;20168;-73
2022/04/19 07:08:38;;;;;;;5.07;4.55;;;;;;;;;;4994265;28;20057;-74
2022/04/19 07:11:05;;;;;;;4.82;4.43;;;;;;;;;;5009817;28;20033;-73
2022/04/19 07:13:41;;;;;;;4.50;4.10;;;;;;;;;;5026104;28;20049;-74
2022/04/19 07:16:13;;;;;;;4.57;4.10;;;;;;;;;;4982865;28;20072;-74
2022/04/19 07:18:40;;;;;;;5.50;4.07;;;;;;;;;;5009395;28;20044;-74
2022/04/19 07:26:40;;;;;;;21.48;13.50;;;;;;;;;;5024712;28;20041;-74
2022/04/19 07:29:12;;;;;;;8.10;5.30;;;;;;;;;;5008898;28;20049;-73
2022/04/19 07:31:41;;;;;;;6.72;4.72;;;;;;;;;;5005038;28;20481;-75
2022/04/19 07:34:16;;;;;;;4.30;3.90;;;;;;;;;;5008233;28;20518;-75
2022/04/19 07:36:45;;;;;;;4.35;3.95;;;;;;;;;;5008481;28;20041;-74
2022/04/19 07:39:13;;;;;;;5.13;4.72;;;;;;;;;;4996590;28;20054;-74
2022/04/19 07:41:46;;;;;;;4.90;4.50;;;;;;;;;;4998693;28;20044;-73
2022/04/19 07:44:17;;;;;;;5.60;5.10;;;;;;;;;;4986446;28;20062;-73
2022/04/19 07:47:05;;;;;;;5.10;4.70;;;;;;;;;;5018342;28;20038;-74
2022/04/19 07:49:37;;;;;;;4.63;4.30;;;;;;;;;;5022276;28;20049;-74
2022/04/19 07:52:05;;;;;;;4.72;4.32;;;;;;;;;;5000416;28;20072;-74
2022/04/19 07:54:36;;;;;;;5.45;4.95;;;;;;;;;;5005378;28;20048;-75
2022/04/19 07:57:05;;;;;;;6.55;4.60;;;;;;;;;;5004402;28;20147;-74
2022/04/19 07:59:33;;;;;;;4.50;4.10;;;;;;;;;;5009722;28;20134;-74
2022/04/19 08:02:00;;;;;;;4.60;4.22;;;;;;;;;;5010375;28;20040;-74
2022/04/19 08:04:28;;;;;;;5.18;4.60;;;;;;;;;;5008556;28;20120;-73
2022/04/19 08:07:01;;;;;;;4.30;4.00;;;;;;;;;;5006681;28;20545;-74
2022/04/19 08:09:30;;;;;;;4.90;4.10;;;;;;;;;;4998431;28;20078;-73
2022/04/19 08:11:58;;;;;;;4.70;4.28;;;;;;;;;;5008545;28;20048;-74
2022/04/19 08:14:27;;;;;;;5.10;4.65;;;;;;;;;;5013136;28;20417;-74
2022/04/19 08:16:54;;;;;;;5.32;4.10;;;;;;;;;;5006717;28;20045;-76
2022/04/19 08:19:21;;;;;;;4.80;4.30;;;;;;;;;;5028709;28;20033;-76
2022/04/19 08:21:49;;;;;;;4.93;4.43;;;;;;;;;;4998083;28;20057;-74
2022/04/19 08:24:17;;;;;;;7.35;4.53;;;;;;;;;;4991074;28;20041;-74
2022/04/19 08:26:47;;;;;;;5.45;3.72;;;;;;;;;;5009331;28;20049;-75
2022/04/19 08:29:41;;;;;;;4.50;4.20;;;;;;;;;;4990766;28;20061;-74
2022/04/19 08:32:08;;;;;;;10.18;4.30;;;;;;;;;;5009582;28;20362;-75
2022/04/19 08:34:35;;;;;;;3.97;3.67;;;;;;;;;;5005275;28;20092;-74
2022/04/19 08:37:03;;;;;;;4.20;3.90;;;;;;;;;;5002779;28;20034;-74
2022/04/19 08:39:31;;;;;;;4.95;4.55;;;;;;;;;;5016094;28;20136;-74
2022/04/19 08:41:58;;;;;;;4.57;4.18;;;;;;;;;;5002443;28;20030;-74
2022/04/19 08:44:26;;;;;;;6.40;4.22;;;;;;;;;;5008642;28;20091;-74
2022/04/19 08:46:57;;;;;;;4.15;3.85;;;;;;;;;;4991664;28;20088;-74
2022/04/19 08:49:25;;;;;;;7.00;4.13;;;;;;;;;;5004791;28;20061;-75
2022/04/19 08:51:53;;;;;;;4.65;4.25;;;;;;;;;;5023823;28;20045;-74
2022/04/19 08:59:54;;;;;;;4.00;3.70;;;;;;;;;;5007152;28;20033;-74
2022/04/19 09:02:23;;;;;;;4.25;3.85;;;;;;;;;;5022019;28;20125;-74
2022/04/19 09:04:52;;;;;;;6.65;4.22;;;;;;;;;;5025090;28;20069;-75
2022/04/19 09:07:23;;;;;;;4.38;4.00;;;;;;;;;;5024523;28;20042;-72
2022/04/19 09:09:58;;;;;;;4.90;4.00;;;;;;;;;;5006248;28;20045;-74
2022/04/19 09:12:26;;;;;;;4.35;4.05;;;;;;;;;;5015773;28;20069;-74
2022/04/19 09:14:58;;;;;;;4.68;4.22;;;;;;;;;;5040408;28;20695;-77
2022/04/19 09:17:41;;;;;;;4.85;4.32;;;;;;;;;;5022061;28;20141;-73
2022/04/19 09:20:18;;;;;;;4.43;4.10;;;;;;;;;;4991393;28;20104;-74
2022/04/19 09:22:50;;;;;;;4.95;4.38;;;;;;;;;;5033078;28;20037;-73
2022/04/19 09:25:25;;;;;;;5.10;4.47;;;;;;;;;;5024420;28;20160;-74
2022/04/19 09:27:54;;;;;;;4.78;4.35;;;;;;;;;;5025371;28;20225;-73
2022/04/19 09:30:23;;;;;;;4.82;4.25;;;;;;;;;;5019229;28;20072;-77
2022/04/19 09:33:03;;;;;;;5.38;4.78;;;;;;;;;;5019943;28;20072;-74
2022/04/19 09:35:31;;;;;;;5.50;4.38;;;;;;;;;;5029156;28;20049;-75
2022/04/19 09:37:59;;;;;;;8.60;4.40;;;;;;;;;;5022307;28;20042;-75
2022/04/19 09:40:43;;;;;;;6.25;4.93;;;;;;;;;;5007615;28;20033;-76
2022/04/19 09:43:10;;;;;;;5.13;4.60;;;;;;;;;;5023092;28;20065;-73
2022/04/19 09:45:46;;;;;;;6.07;4.63;;;;;;;;;;5026600;28;20107;-75
2022/04/19 09:48:17;;;;;;;6.32;4.68;;;;;;;;;;5024992;28;20393;-75
2022/04/19 09:50:48;;;;;;;7.80;4.43;;;;;;;;;;5024853;28;20132;-75
2022/04/19 09:53:20;;;;;;;6.27;5.50;;;;;;;;;;5001924;28;20172;-75
2022/04/19 09:55:48;;;;;;;5.53;5.03;;;;;;;;;;5022779;28;20050;-76
2022/04/19 09:58:16;;;;;;;5.20;4.70;;;;;;;;;;5024884;28;20063;-74
2022/04/19 10:00:45;;;;;;;6.20;4.60;;;;;;;;;;5028617;28;20264;-76
2022/04/19 10:08:39;;;;;;;5.25;4.65;;;;;;;;;;5023158;28;20055;-75
2022/04/19 10:11:07;;;;;;;4.95;4.55;;;;;;;;;;5023389;28;20042;-75
2022/04/19 10:13:35;;;;;;;5.50;4.35;;;;;;;;;;5025089;28;20077;-76
2022/04/19 10:16:11;;;;;;;4.95;4.55;;;;;;;;;;5031714;28;20041;-75
2022/04/19 10:18:39;;;;;;;5.00;4.28;;;;;;;;;;5031148;28;20444;-76
2022/04/19 10:21:11;;;;;;;6.43;4.00;;;;;;;;;;5030096;28;20425;-75
2022/04/19 10:23:40;;;;;;;4.97;4.40;;;;;;;;;;5019530;28;20049;-76
2022/04/19 10:26:14;;;;;;;9.75;5.22;;;;;;;;;;5002738;28;20042;-74
2022/04/19 10:28:41;;;;;;;4.85;4.45;;;;;;;;;;5007159;28;20052;-75
2022/04/19 10:31:10;;;;;;;6.88;3.80;;;;;;;;;;5007093;28;20041;-75
2022/04/19 10:33:45;;;;;;;4.15;3.85;;;;;;;;;;5019464;28;20115;-74
2022/04/19 10:36:17;;;;;;;4.80;3.92;;;;;;;;;;5007733;28;20045;-74
2022/04/19 10:38:46;;;;;;;6.53;4.10;;;;;;;;;;5027618;28;20071;-75
2022/04/19 10:41:33;;;;;;;3.97;3.08;;;;;;;;;;5008929;28;20628;-77
2022/04/19 10:44:20;;;;;;;4.28;2.92;;;;;;;;;;5005872;28;20091;-75
2022/04/19 10:46:48;;;;;;;2.95;2.53;;;;;;;;;;5011507;28;20133;-76
2022/04/19 10:49:25;;;;;;;3.45;2.53;;;;;;;;;;5009180;28;20052;-76
2022/04/19 10:51:59;;;;;;;4.20;2.88;;;;;;;;;;5018620;28;20069;-74
2022/04/19 10:54:45;;;;;;;2.70;2.50;;;;;;;;;;5017631;28;20046;-75
2022/04/19 11:00:22;;;;;;;2.85;2.63;;;;;;;;;;4991549;28;20148;-74
2022/04/19 11:03:09;;;;;;;3.08;2.70;;;;;;;;;;5020170;28;20506;-74
2022/04/19 11:05:46;;;;;;;2.70;2.47;;;;;;;;;;5022130;28;20033;-74
2022/04/19 11:08:26;;;;;;;2.75;2.35;;;;;;;;;;5013241;28;20050;-75
2022/04/19 11:10:57;;;;;;;2.42;2.22;;;;;;;;;;5021485;28;20080;-76
2022/04/19 11:13:31;;;;;;;3.92;2.75;;;;;;;;;;5021260;28;20072;-76
2022/04/19 11:16:07;;;;;;;6.18;2.75;;;;;;;;;;5021572;28;20037;-76
2022/04/19 11:18:54;;;;;;;3.20;3.00;;;;;;;;;;5028180;28;20474;-76
2022/04/19 11:21:50;;;;;;;4.13;2.80;;;;;;;;;;5015032;28;20025;-75
2022/04/19 11:24:36;;;;;;;3.00;2.80;;;;;;;;;;5021436;28;20037;-75
2022/04/19 11:27:04;;;;;;;2.90;2.70;;;;;;;;;;5018620;28;20046;-75
2022/04/19 11:30:00;;;;;;;3.50;3.22;;;;;;;;;;5027132;28;20161;-75
2022/04/19 11:32:29;;;;;;;3.25;3.05;;;;;;;;;;5009791;28;20521;-75
2022/04/19 11:34:57;;;;;;;3.75;3.40;;;;;;;;;;5006362;28;20207;-75
2022/04/19 11:37:25;;;;;;;3.83;3.47;;;;;;;;;;5009321;28;20136;-74
2022/04/19 11:48:28;;;;;;;2.92;2.72;;;;;;;;;;5012734;28;21770;-75
2022/04/19 11:51:05;;;;;;;3.45;3.03;;;;;;;;;;5012400;28;20080;-76
2022/04/19 11:53:47;;;;;;;2.92;2.63;;;;;;;;;;5021977;28;20052;-76
2022/04/19 11:56:18;;;;;;;7.90;3.40;;;;;;;;;;5000693;28;20081;-76
2022/04/19 11:58:51;;;;;;;3.75;3.30;;;;;;;;;;5020770;28;20190;-75
2022/04/19 12:01:19;;;;;;;3.15;2.95;;;;;;;;;;5013565;28;20088;-75
2022/04/19 12:03:47;;;;;;;3.10;2.83;;;;;;;;;;5009586;28;20475;-75
2022/04/19 12:06:16;;;;;;;3.03;2.78;;;;;;;;;;5018465;28;20052;-76
2022/04/19 12:08:44;;;;;;;3.00;2.80;;;;;;;;;;5017062;28;20046;-77
2022/04/19 12:11:16;;;;;;;9.73;3.35;;;;;;;;;;5019992;28;20052;-74
2022/04/19 12:13:44;;;;;;;3.85;3.30;;;;;;;;;;5015038;28;20076;-75
2022/04/19 12:16:31;;;;;;;3.00;2.80;;;;;;;;;;5005127;28;20724;-74
2022/04/19 12:19:00;;;;;;;3.58;3.38;;;;;;;;;;5016952;23;20490;-80
2022/04/19 12:21:43;;;;;;;3.85;3.40;;;;;;;;;;4983820;28;20038;-79
2022/04/19 12:24:48;;;;;;;3.47;3.20;;;;;;;;;;4936937;28;20042;-78
2022/04/19 12:27:15;;;;;;;3.55;2.65;;;;;;;;;;4956688;28;20098;-77
2022/04/19 12:30:02;;;;;;;3.60;3.30;;;;;;;;;;4958665;28;20043;-79
2022/04/19 12:32:49;;;;;;;3.05;2.85;;;;;;;;;;4961448;28;20122;-79
2022/04/19 12:35:18;;;;;;;3.35;3.08;;;;;;;;;;4968254;28;20070;-79
2022/04/19 12:38:03;;;;;;;4.70;3.22;;;;;;;;;;4968313;28;20054;-78
2022/04/19 12:40:30;;;;;;;4.00;3.70;;;;;;;;;;4968982;28;20045;-79
2022/04/19 12:42:58;;;;;;;4.80;3.42;;;;;;;;;;4971792;28;20651;-81
2022/04/19 12:45:30;;;;;;;3.30;3.10;;;;;;;;;;4936816;28;20062;-81
2022/04/19 12:48:01;;;;;;;3.97;3.58;;;;;;;;;;4954843;28;20038;-78
2022/04/19 12:50:28;;;;;;;5.45;3.53;;;;;;;;;;4971552;28;20058;-80
2022/04/19 12:52:56;;;;;;;4.43;3.90;;;;;;;;;;4969703;28;20129;-79
2022/04/19 12:58:49;;;;;;;4.82;4.25;;;;;;;;;;4970705;28;20039;-81
2022/04/19 13:01:16;;;;;;;4.13;3.50;;;;;;;;;;4973959;28;20043;-80
2022/04/19 13:03:44;;;;;;;4.70;4.30;;;;;;;;;;4972693;28;20062;-82
2022/04/19 13:14:30;;;;;;;6.10;5.50;;;;;;;;;;4956515;28;20050;-81
2022/04/19 13:16:58;;;;;;;7.22;5.97;;;;;;;;;;4965295;28;20062;-81
2022/04/19 13:19:27;;;;;;;4.93;4.53;;;;;;;;;;4949099;28;20043;-80
2022/04/19 13:21:55;;;;;;;5.40;5.00;;;;;;;;;;4963911;28;20049;-80
2022/04/19 13:24:24;;;;;;;7.43;5.05;;;;;;;;;;4965733;28;20043;-79
2022/04/19 13:26:53;;;;;;;5.90;5.30;;;;;;;;;;4949886;28;20061;-80
2022/04/19 13:29:20;;;;;;;7.35;5.57;;;;;;;;;;4958650;28;20047;-80
2022/04/19 13:31:47;;;;;;;6.53;5.57;;;;;;;;;;4968715;28;20124;-78
2022/04/19 13:34:24;;;;;;;5.82;5.25;;;;;;;;;;4942548;28;20105;-79
2022/04/19 13:36:51;;;;;;;5.05;4.65;;;;;;;;;;4953410;28;20053;-80
2022/04/19 13:39:19;;;;;;;5.65;5.07;;;;;;;;;;4958701;28;20122;-79
2022/04/19 13:41:46;;;;;;;10.50;4.75;;;;;;;;;;4971910;28;20084;-78
2022/04/19 13:44:13;;;;;;;39.67;5.65;;;;;;;;;;4966790;28;20501;-77
2022/04/19 13:46:46;;;;;;;6.30;5.72;;;;;;;;;;4966108;28;20375;-77
2022/04/19 13:49:17;;;;;;;7.38;6.70;;;;;;;;;;4968084;28;20047;-77
2022/04/19 13:51:45;;;;;;;8.32;6.18;;;;;;;;;;4968479;28;20039;-77
2022/04/19 13:54:20;;;;;;;5.05;4.70;;;;;;;;;;4951492;28;20051;-78
2022/04/19 13:56:48;;;;;;;7.75;7.05;;;;;;;;;;4967292;28;20042;-77
2022/04/19 13:59:17;;;;;;;5.45;5.05;;;;;;;;;;4953156;28;20113;-77
2022/04/19 14:01:45;;;;;;;10.60;7.10;;;;;;;;;;4982416;23;20044;-78
2022/04/19 14:04:17;;;;;;;5.82;5.35;;;;;;;;;;4982924;28;20124;-80
2022/04/19 14:06:45;;;;;;;9.25;8.35;;;;;;;;;;4988520;28;20046;-78
2022/04/19 14:09:13;;;;;;;5.90;5.40;;;;;;;;;;4982565;28;20148;-78
2022/04/19 14:11:50;;;;;;;7.75;7.15;;;;;;;;;;4982396;28;20477;-78
2022/04/19 14:14:18;;;;;;;6.57;6.07;;;;;;;;;;4974922;28;20054;-81
2022/04/19 14:16:46;;;;;;;7.00;6.45;;;;;;;;;;4983175;28;20643;-78
2022/04/19 14:19:14;;;;;;;7.00;6.45;;;;;;;;;;4949243;28;20050;-77
2022/04/19 14:21:41;;;;;;;8.65;7.95;;;;;;;;;;4978865;28;20053;-78
2022/04/19 14:24:09;;;;;;;7.70;6.90;;;;;;;;;;4980950;28;20498;-79
2022/04/19 14:26:36;;;;;;;7.55;6.78;;;;;;;;;;4960854;28;20062;-78
2022/04/19 14:34:52;;;;;;;7.40;6.70;;;;;;;;;;4984300;28;20431;-81
2022/04/19 14:37:19;;;;;;;6.22;5.82;;;;;;;;;;4964055;28;20104;-78
2022/04/19 14:39:47;;;;;;;7.05;6.40;;;;;;;;;;4971523;28;20058;-79
2022/04/19 14:42:15;;;;;;;6.40;5.90;;;;;;;;;;4989833;28;20046;-81
2022/04/19 14:44:50;;;;;;;8.90;8.10;;;;;;;;;;4956057;28;20069;-82
2022/04/19 14:47:22;;;;;;;8.35;7.55;;;;;;;;;;4930123;28;20058;-78
2022/04/19 14:49:57;;;;;;;8.63;7.40;;;;;;;;;;4961825;28;20042;-78
2022/04/19 14:52:33;;;;;;;9.52;7.75;;;;;;;;;;4969443;28;20844;-80
2022/04/19 14:55:01;;;;;;;5.50;5.10;;;;;;;;;;4969946;28;20128;-78
2022/04/19 14:57:29;;;;;;;6.93;6.22;;;;;;;;;;4978211;28;20050;-80
2022/04/19 14:59:56;;;;;;;7.40;6.75;;;;;;;;;;4938784;28;20198;-79
2022/04/19 15:02:24;;;;;;;7.75;7.00;;;;;;;;;;4955430;28;20042;-81
2022/04/19 15:05:04;;;;;;;6.47;5.97;;;;;;;;;;4972054;28;20054;-81
2022/04/19 15:07:32;;;;;;;5.85;5.38;;;;;;;;;;4936934;28;20289;-82
2022/04/19 15:09:59;;;;;;;6.75;6.10;;;;;;;;;;4977644;28;20126;-82
2022/04/19 15:12:53;;;;;;;6.18;5.68;;;;;;;;;;4970635;28;20625;-80
2022/04/19 15:15:20;;;;;;;6.57;5.80;;;;;;;;;;4955940;28;20097;-81
2022/04/19 15:17:49;;;;;;;4.57;4.25;;;;;;;;;;4938265;28;20085;-80
2022/04/19 15:20:17;;;;;;;5.03;4.55;;;;;;;;;;4957151;28;20255;-80
2022/04/19 15:22:44;;;;;;;3.53;3.22;;;;;;;;;;4970265;28;20383;-80
2022/04/19 15:25:21;;;;;;;4.35;3.97;;;;;;;;;;4973711;28;20513;-83
2022/04/19 15:27:48;;;;;;;4.05;3.55;;;;;;;;;;4939849;28;20050;-83
2022/04/19 15:30:16;;;;;;;3.42;3.17;;;;;;;;;;4942174;28;20121;-82
2022/04/19 15:32:44;;;;;;;3.15;2.95;;;;;;;;;;4960196;28;20054;-81
2022/04/19 15:35:12;;;;;;;2.90;2.70;;;;;;;;;;4948788;28;20038;-84
2022/04/19 15:37:39;;;;;;;2.95;2.42;;;;;;;;;;4981202;28;20120;-79
2022/04/19 15:40:07;;;;;;;3.05;2.85;;;;;;;;;;4959881;28;20041;-79
2022/04/19 15:42:35;;;;;;;3.00;2.80;;;;;;;;;;4941068;28;20129;-79
2022/04/19 15:45:06;;;;;;;3.00;2.80;;;;;;;;;;4955145;28;20069;-83
2022/04/19 15:47:34;;;;;;;2.78;2.58;;;;;;;;;;4973329;28;20073;-81
2022/04/19 15:50:03;;;;;;;3.17;2.97;;;;;;;;;;4937653;28;20294;-84
2022/04/19 15:52:30;;;;;;;3.28;3.05;;;;;;;;;;4954281;28;20525;-83
2022/04/19 15:54:58;;;;;;;3.17;2.88;;;;;;;;;;4941663;28;20042;-77
2022/04/19 15:57:26;;;;;;;3.13;2.92;;;;;;;;;;4922138;28;20070;-80
2022/04/19 15:59:53;;;;;;;2.78;2.63;;;;;;;;;;4955571;28;20042;-81
2022/04/19 16:02:21;;;;;;;2.80;2.60;;;;;;;;;;4954233;28;20611;-83
2022/04/19 16:04:49;;;;;;;3.13;2.83;;;;;;;;;;4972639;28;20248;-80